Time;durP1;ratioP1;P1;durP2;ratioP2;P2;SDS_P1;SDS_P2;PMS_P1;PMS_P2;Temp;Humidity;BMP_temperature;BMP_pressure;BME280_temperature;BME280_humidity;BME280_pressure;Samples;Min_cycle;Max_cycle;Signal;HPM_P1;HPM_P2
2022/11/13 00:01:31;;;;;;;29.40;6.05;;;;;;;12.56;100.00;100287.88;5049715;28;20048;-91
2022/11/13 00:04:16;;;;;;;34.03;6.22;;;;;;;12.57;100.00;100284.22;5049324;28;20029;-91
2022/11/13 00:07:00;;;;;;;26.73;6.20;;;;;;;12.54;100.00;100282.72;5046444;28;20021;-90
2022/11/13 00:09:45;;;;;;;26.02;6.18;;;;;;;12.53;100.00;100278.44;5033968;28;20120;-90
2022/11/13 00:12:29;;;;;;;29.60;6.07;;;;;;;12.49;100.00;100283.22;5052034;28;20112;-90
2022/11/13 00:15:13;;;;;;;26.15;7.18;;;;;;;12.50;100.00;100278.75;5028644;28;20035;-91
2022/11/13 00:18:02;;;;;;;22.55;5.20;;;;;;;12.51;100.00;100273.28;5042171;28;20090;-92
2022/11/13 00:20:46;;;;;;;33.85;6.15;;;;;;;12.48;100.00;100281.56;5036087;28;20045;-92
2022/11/13 00:23:35;;;;;;;22.77;6.00;;;;;;;12.50;100.00;100276.91;5044142;28;20368;-91
2022/11/13 00:26:26;;;;;;;33.28;6.47;;;;;;;12.51;100.00;100277.75;5044213;28;20036;-91
2022/11/13 00:29:13;;;;;;;27.42;6.55;;;;;;;12.45;100.00;100273.94;5044054;28;20040;-92
2022/11/13 00:31:58;;;;;;;19.27;4.93;;;;;;;12.46;100.00;100272.09;5027831;28;20481;-92
2022/11/13 00:34:43;;;;;;;26.23;5.90;;;;;;;12.47;100.00;100256.03;5049076;28;20036;-91
2022/11/13 00:37:27;;;;;;;23.75;5.82;;;;;;;12.46;100.00;100264.97;5048525;28;20037;-92
2022/11/13 00:40:11;;;;;;;25.85;7.15;;;;;;;12.44;100.00;100258.19;5042032;28;20033;-91
2022/11/13 00:42:55;;;;;;;27.25;6.07;;;;;;;12.42;100.00;100253.03;5042174;28;20028;-92
2022/11/13 00:45:39;;;;;;;19.95;5.07;;;;;;;12.44;100.00;100236.97;5056022;28;20048;-91
2022/11/13 00:48:24;;;;;;;25.00;5.90;;;;;;;12.42;100.00;100234.50;5037146;28;20033;-91
2022/11/13 00:51:08;;;;;;;26.17;6.70;;;;;;;12.38;100.00;100241.94;5031258;28;20067;-91
2022/11/13 00:53:52;;;;;;;25.60;5.72;;;;;;;12.38;100.00;100238.44;5032318;28;20037;-92
2022/11/13 00:56:37;;;;;;;22.98;5.75;;;;;;;12.36;100.00;100237.78;5044933;28;20128;-91
2022/11/13 00:59:21;;;;;;;24.10;6.40;;;;;;;12.35;100.00;100234.31;5036680;28;20041;-92
2022/11/13 01:02:05;;;;;;;27.27;5.35;;;;;;;12.35;100.00;100228.16;5033206;28;20044;-92
2022/11/13 01:04:50;;;;;;;28.83;5.82;;;;;;;12.30;100.00;100225.16;5048569;28;20106;-91
2022/11/13 01:07:36;;;;;;;22.75;6.47;;;;;;;12.27;100.00;100221.84;5065136;28;20040;-92
2022/11/13 01:10:21;;;;;;;30.83;6.68;;;;;;;12.24;100.00;100208.94;5042349;28;20029;-92
2022/11/13 01:13:05;;;;;;;22.33;5.75;;;;;;;12.20;100.00;100212.88;5049933;28;20045;-92
2022/11/13 01:15:49;;;;;;;30.80;6.63;;;;;;;12.20;100.00;100215.53;5035628;28;20509;-92
2022/11/13 01:18:34;;;;;;;17.80;5.47;;;;;;;12.19;100.00;100207.75;5040858;28;20045;-93
2022/11/13 01:21:21;;;;;;;26.73;5.72;;;;;;;12.19;100.00;100203.28;5054919;28;20075;-91
2022/11/13 01:24:05;;;;;;;28.90;5.78;;;;;;;12.17;100.00;100199.94;5051240;28;20520;-91
2022/11/13 01:26:49;;;;;;;25.95;6.88;;;;;;;12.14;100.00;100201.13;5034168;28;20492;-91
2022/11/13 01:29:33;;;;;;;30.80;6.25;;;;;;;12.15;100.00;100186.06;5044806;28;20037;-92
2022/11/13 01:32:17;;;;;;;28.38;7.32;;;;;;;12.17;100.00;100193.84;5041375;28;20116;-92
2022/11/13 01:35:02;;;;;;;29.35;6.57;;;;;;;12.15;100.00;100186.88;5037968;28;20607;-93
2022/11/13 01:37:46;;;;;;;28.00;6.07;;;;;;;12.16;100.00;100187.69;5032404;28;20049;-92
2022/11/13 01:40:30;;;;;;;37.50;8.05;;;;;;;12.15;100.00;100192.16;5053948;28;20032;-91
2022/11/13 01:43:30;;;;;;;29.02;7.35;;;;;;;12.17;100.00;100192.00;5041667;28;20025;-91
2022/11/13 01:46:19;;;;;;;31.00;6.18;;;;;;;12.15;100.00;100183.41;5037447;28;20028;-92
2022/11/13 01:49:33;;;;;;;23.05;5.70;;;;;;;12.15;100.00;100183.41;5045004;28;20037;-91
2022/11/13 01:52:26;;;;;;;23.45;6.47;;;;;;;12.15;100.00;100178.09;5038194;28;20048;-92
2022/11/13 01:55:15;;;;;;;24.52;5.72;;;;;;;12.14;100.00;100177.25;5048462;28;20033;-92
2022/11/13 01:58:00;;;;;;;41.20;6.95;;;;;;;12.14;100.00;100165.81;5036183;28;20037;-92
2022/11/13 02:00:45;;;;;;;;;;;;;;;12.07;100.00;100165.59;5044480;28;20061;-92
2022/11/13 02:03:29;;;;;;;36.42;6.10;;;;;;;12.12;100.00;100162.53;5044233;28;19920;-92
2022/11/13 02:06:14;;;;;;;28.13;5.97;;;;;;;12.13;100.00;100150.94;5059903;28;20052;-91
2022/11/13 02:08:59;;;;;;;27.23;5.47;;;;;;;12.14;100.00;100156.06;5043892;28;20034;-92
2022/11/13 02:11:44;;;;;;;33.22;6.18;;;;;;;12.12;100.00;100138.69;5051611;28;20041;-90
2022/11/13 02:14:29;;;;;;;39.75;6.20;;;;;;;12.10;100.00;100136.22;5036788;28;20047;-92
2022/11/13 02:17:22;;;;;;;33.83;6.60;;;;;;;12.13;100.00;100135.03;5046051;28;20037;-92
2022/11/13 02:20:09;;;;;;;28.38;5.70;;;;;;;12.12;100.00;100120.16;5056526;28;20037;-92
2022/11/13 02:23:28;;;;;;;26.35;5.78;;;;;;;12.12;100.00;100125.44;5053699;28;20079;-92
2022/11/13 02:26:15;;;;;;;23.48;5.60;;;;;;;12.09;100.00;100112.53;4990590;28;20508;-92
2022/11/13 02:28:59;;;;;;;29.67;5.47;;;;;;;12.03;100.00;100098.91;5066790;28;20045;-91
2022/11/13 02:31:43;;;;;;;28.15;5.68;;;;;;;12.05;100.00;100096.09;5035924;28;20069;-91
2022/11/13 02:34:28;;;;;;;25.48;5.63;;;;;;;12.03;100.00;100077.72;5055204;28;20241;-91
2022/11/13 02:37:12;;;;;;;32.15;5.50;;;;;;;12.06;100.00;100081.84;5041383;28;20420;-91
2022/11/13 02:39:57;;;;;;;24.90;5.53;;;;;;;12.04;100.00;100082.00;5040353;28;20033;-91
2022/11/13 02:42:41;;;;;;;35.53;5.38;;;;;;;12.03;100.00;100085.66;5042874;28;20036;-91
2022/11/13 02:45:25;;;;;;;24.55;4.95;;;;;;;12.03;100.00;100083.00;5049249;28;20029;-91
2022/11/13 02:48:09;;;;;;;32.97;6.05;;;;;;;12.00;100.00;100085.13;5048096;28;20081;-92
2022/11/13 02:50:53;;;;;;;22.02;4.72;;;;;;;11.97;100.00;100082.81;5032084;28;20118;-92
2022/11/13 02:53:38;;;;;;;28.60;5.28;;;;;;;11.96;100.00;100081.16;5048632;28;20489;-92
2022/11/13 02:56:22;;;;;;;30.13;4.68;;;;;;;11.97;100.00;100078.34;5044958;28;20033;-91
2022/11/13 02:59:06;;;;;;;27.15;5.97;;;;;;;11.97;100.00;100066.94;5039921;28;20079;-91
2022/11/13 03:01:50;;;;;;;32.75;4.78;;;;;;;11.97;100.00;100064.28;5060302;28;20045;-91
2022/11/13 03:04:35;;;;;;;22.20;4.57;;;;;;;11.95;100.00;100055.66;5057400;28;20044;-92
2022/11/13 03:07:19;;;;;;;31.33;5.10;;;;;;;11.92;100.00;100056.81;5054944;28;20028;-91
2022/11/13 03:10:03;;;;;;;28.00;5.57;;;;;;;11.93;100.00;100065.59;5034305;28;20033;-92
2022/11/13 03:12:47;;;;;;;29.92;4.93;;;;;;;11.90;100.00;100062.28;5054062;28;20090;-91
2022/11/13 03:15:33;;;;;;;23.35;4.47;;;;;;;11.91;100.00;100063.13;5048749;28;20026;-91
2022/11/13 03:18:17;;;;;;;39.45;6.15;;;;;;;11.88;100.00;100076.69;5049059;28;20120;-91
2022/11/13 03:21:13;;;;;;;32.35;6.00;;;;;;;11.91;100.00;100063.13;5034380;28;20124;-91
2022/11/13 03:23:58;;;;;;;34.75;5.72;;;;;;;11.86;100.00;100050.38;5040947;28;20030;-91
2022/11/13 03:26:42;;;;;;;25.95;5.95;;;;;;;11.83;100.00;100055.16;5054142;28;20092;-91
2022/11/13 03:29:27;;;;;;;29.92;5.35;;;;;;;11.78;100.00;100045.84;5043142;28;20040;-91
2022/11/13 03:32:11;;;;;;;25.60;5.28;;;;;;;11.77;100.00;100048.66;5040881;28;20103;-91
2022/11/13 03:34:55;;;;;;;23.92;6.13;;;;;;;11.79;100.00;100033.47;5038646;28;20032;-91
2022/11/13 03:37:40;;;;;;;28.55;6.00;;;;;;;11.76;100.00;100036.44;5048217;28;20065;-92
2022/11/13 03:40:24;;;;;;;25.80;5.20;;;;;;;11.75;100.00;100038.25;5038300;28;20040;-91
2022/11/13 03:43:08;;;;;;;25.92;5.13;;;;;;;11.76;100.00;100031.13;5053786;28;20020;-91
2022/11/13 03:45:52;;;;;;;33.35;6.38;;;;;;;11.77;100.00;100043.38;5039787;28;20093;-92
2022/11/13 03:48:36;;;;;;;30.73;4.97;;;;;;;11.77;100.00;100043.38;5031869;28;20033;-92
2022/11/13 03:51:21;;;;;;;23.52;4.63;;;;;;;11.78;100.00;100034.47;5038862;28;20036;-92
2022/11/13 03:54:05;;;;;;;31.20;5.20;;;;;;;11.81;100.00;100025.34;5047799;28;20044;-91
2022/11/13 03:56:50;;;;;;;27.20;5.50;;;;;;;11.85;100.00;100037.28;5047494;28;20029;-92
2022/11/13 03:59:34;;;;;;;24.58;4.82;;;;;;;11.85;100.00;100026.69;5046701;28;20024;-92
2022/11/13 04:02:18;;;;;;;33.10;6.55;;;;;;;11.88;100.00;100023.72;5027738;28;20044;-91
2022/11/13 04:05:02;;;;;;;31.15;5.82;;;;;;;11.91;100.00;100024.19;5040403;28;20394;-91
2022/11/13 04:07:47;;;;;;;27.45;5.82;;;;;;;11.93;100.00;100012.63;5048224;28;20043;-92
2022/11/13 04:10:32;;;;;;;25.15;5.35;;;;;;;11.96;100.00;100023.72;5047998;28;20033;-91
2022/11/13 04:13:16;;;;;;;29.88;5.95;;;;;;;11.98;100.00;100034.13;5050208;28;20041;-91
2022/11/13 04:16:01;;;;;;;16.92;5.35;;;;;;;11.99;100.00;100027.88;5054205;28;20044;-91
2022/11/13 04:18:46;;;;;;;27.13;4.88;;;;;;;11.99;100.00;100012.78;5048044;28;20057;-90
2022/11/13 04:21:31;;;;;;;28.30;5.78;;;;;;;12.06;100.00;100012.97;5048255;28;20037;-91
2022/11/13 04:24:15;;;;;;;27.20;6.85;;;;;;;12.07;100.00;100004.00;5031774;28;20032;-90
2022/11/13 04:26:59;;;;;;;20.98;5.28;;;;;;;12.05;100.00;100000.72;5036472;28;20037;-91
2022/11/13 04:29:43;;;;;;;28.60;5.40;;;;;;;12.09;100.00;99988.81;5065024;28;20037;-91
2022/11/13 04:32:27;;;;;;;31.00;5.68;;;;;;;12.12;100.00;99974.44;5045921;28;20033;-92
2022/11/13 04:35:12;;;;;;;24.70;5.03;;;;;;;12.14;100.00;99970.63;5052899;28;20169;-91
2022/11/13 04:37:56;;;;;;;15.38;4.72;;;;;;;12.12;100.00;99975.25;5023119;28;20037;-91
2022/11/13 04:40:41;;;;;;;32.53;6.25;;;;;;;12.13;100.00;99979.56;5039186;28;20052;-89
2022/11/13 04:43:26;;;;;;;20.23;4.50;;;;;;;12.14;100.00;99969.78;5040775;28;20033;-91
2022/11/13 04:46:10;;;;;;;27.73;5.45;;;;;;;12.15;100.00;99980.22;5047626;28;20112;-91
2022/11/13 04:48:54;;;;;;;24.58;5.10;;;;;;;12.16;100.00;99965.16;5050107;28;20505;-91
2022/11/13 04:51:39;;;;;;;27.15;6.38;;;;;;;12.18;100.00;99957.88;5034143;28;20473;-91
2022/11/13 04:54:23;;;;;;;30.10;5.72;;;;;;;12.23;100.00;99949.41;5068321;28;20064;-92
2022/11/13 04:57:07;;;;;;;20.25;4.78;;;;;;;12.22;100.00;99959.19;5032756;28;20041;-91
2022/11/13 04:59:51;;;;;;;34.20;5.72;;;;;;;12.23;100.00;99949.41;5043537;28;20045;-91
2022/11/13 05:02:36;;;;;;;27.95;4.43;;;;;;;12.24;100.00;99936.00;5048443;28;20032;-92
2022/11/13 05:05:20;;;;;;;31.48;4.88;;;;;;;12.22;100.00;99945.94;5035491;28;20037;-92
2022/11/13 05:08:04;;;;;;;29.35;4.78;;;;;;;12.20;100.00;99949.75;5033463;28;20033;-91
2022/11/13 05:10:48;;;;;;;38.70;5.43;;;;;;;12.20;100.00;99949.75;5027909;28;20049;-91
2022/11/13 05:13:34;;;;;;;25.77;4.90;;;;;;;12.21;100.00;99941.63;5034410;28;20025;-91
2022/11/13 05:16:18;;;;;;;31.30;4.88;;;;;;;12.19;100.00;99938.31;5036521;28;20187;-92
2022/11/13 05:19:06;;;;;;;26.55;5.35;;;;;;;12.21;100.00;99931.03;5044960;28;20099;-92
2022/11/13 05:21:50;;;;;;;25.60;6.22;;;;;;;12.18;100.00;99941.97;5037347;28;20033;-91
2022/11/13 05:24:34;;;;;;;30.10;5.82;;;;;;;12.20;100.00;99947.09;5049990;28;20033;-91
2022/11/13 05:27:19;;;;;;;24.23;5.70;;;;;;;12.21;100.00;99954.88;5036916;28;20029;-91
2022/11/13 05:30:03;;;;;;;25.75;4.90;;;;;;;12.21;100.00;99954.88;5034274;28;20037;-92
2022/11/13 05:32:48;;;;;;;26.15;5.22;;;;;;;12.21;100.00;99952.25;5050582;28;20033;-92
2022/11/13 05:35:32;;;;;;;35.30;5.40;;;;;;;12.19;100.00;99956.03;5030139;28;20091;-91
2022/11/13 05:38:16;;;;;;;39.33;5.65;;;;;;;12.20;100.00;99961.16;5045355;28;20068;-92
2022/11/13 05:41:06;;;;;;;23.98;5.93;;;;;;;12.22;100.00;99953.88;5034326;28;20043;-91
2022/11/13 05:43:50;;;;;;;29.92;4.88;;;;;;;12.21;100.00;99941.63;5043815;28;20029;-92
2022/11/13 05:46:35;;;;;;;27.80;5.40;;;;;;;12.22;100.00;99935.34;5045382;28;20113;-92
2022/11/13 05:49:19;;;;;;;27.80;5.00;;;;;;;12.22;100.00;99927.38;5020959;28;20033;-91
2022/11/13 05:52:05;;;;;;;28.92;5.60;;;;;;;12.22;100.00;99924.75;5034536;28;20040;-91
2022/11/13 05:54:50;;;;;;;19.50;4.75;;;;;;;12.21;100.00;99920.44;5051393;28;20033;-92
2022/11/13 05:57:34;;;;;;;24.90;5.20;;;;;;;12.20;100.00;99929.38;5072514;28;20485;-90
2022/11/13 06:00:18;;;;;;;27.42;5.72;;;;;;;12.17;100.00;99926.25;5052409;28;20052;-91
2022/11/13 06:03:03;;;;;;;23.50;4.00;;;;;;;12.17;100.00;99936.84;5047432;28;20502;-92
2022/11/13 06:05:47;;;;;;;33.90;6.57;;;;;;;12.15;100.00;99940.47;5066132;28;20127;-92
2022/11/13 06:08:32;;;;;;;23.08;5.03;;;;;;;12.15;100.00;99926.41;5049998;28;20045;-91
2022/11/13 06:11:20;;;;;;;28.52;4.65;;;;;;;12.13;100.00;99916.00;5061648;28;20059;-92
2022/11/13 06:14:04;;;;;;;33.88;5.95;;;;;;;12.09;100.00;99896.09;5052568;28;20036;-92
2022/11/13 06:16:49;;;;;;;25.27;5.28;;;;;;;12.05;100.00;99892.13;5053484;28;20044;-92
2022/11/13 06:19:33;;;;;;;29.33;4.82;;;;;;;12.06;100.00;99871.72;5053399;28;20040;-91
2022/11/13 06:22:17;;;;;;;33.20;5.68;;;;;;;12.01;100.00;99862.47;5057389;28;20033;-90
2022/11/13 06:25:01;;;;;;;21.95;4.53;;;;;;;11.99;100.00;99856.50;5046030;28;20029;-91
2022/11/13 06:27:46;;;;;;;20.27;4.93;;;;;;;11.99;100.00;99861.00;5049364;28;20037;-91
2022/11/13 06:30:30;;;;;;;23.02;3.78;;;;;;;11.99;100.00;99858.34;5037952;28;20394;-92
2022/11/13 06:33:14;;;;;;;23.33;5.45;;;;;;;11.97;100.00;99853.22;5045594;28;20037;-91
2022/11/13 06:36:03;;;;;;;25.45;4.60;;;;;;;12.04;100.00;99866.59;5058610;28;20041;-90
2022/11/13 06:38:48;;;;;;;26.40;5.35;;;;;;;11.99;100.00;99869.75;5057704;28;20032;-88
2022/11/13 06:41:33;;;;;;;25.13;4.80;;;;;;;11.99;100.00;99864.47;5056147;28;20036;-92
2022/11/13 06:44:17;;;;;;;29.98;5.05;;;;;;;12.01;100.00;99881.03;5054442;28;20029;-90
2022/11/13 06:47:02;;;;;;;17.38;4.03;;;;;;;11.98;100.00;99873.41;5070759;28;20155;-92
2022/11/13 06:49:46;;;;;;;28.05;5.38;;;;;;;11.98;100.00;99885.81;5031002;28;20044;-92
2022/11/13 06:52:30;;;;;;;30.92;5.28;;;;;;;12.00;100.00;99875.91;5054171;28;20037;-92
2022/11/13 06:55:14;;;;;;;28.10;4.68;;;;;;;12.02;100.00;99877.38;5057355;28;20075;-92
2022/11/13 06:57:59;;;;;;;24.20;4.38;;;;;;;12.01;100.00;99881.03;5052346;28;20041;-91
2022/11/13 07:00:44;;;;;;;26.90;5.38;;;;;;;12.02;100.00;99880.00;5044975;28;20051;-92
2022/11/13 07:03:29;;;;;;;24.52;4.72;;;;;;;12.01;100.00;99886.31;5051938;28;20088;-92
2022/11/13 07:06:16;;;;;;;19.92;4.57;;;;;;;12.06;100.00;99880.50;5051091;28;20067;-91
2022/11/13 07:09:01;;;;;;;20.00;4.38;;;;;;;12.04;100.00;99871.91;5055463;28;20098;-91
2022/11/13 07:11:46;;;;;;;27.30;5.20;;;;;;;12.04;100.00;99872.75;5041438;28;20037;-91
2022/11/13 07:14:30;;;;;;;25.70;5.97;;;;;;;12.08;100.00;99878.56;5040845;28;20712;-91
2022/11/13 07:17:14;;;;;;;29.98;4.45;;;;;;;12.10;100.00;99873.94;5043760;28;20033;-92
2022/11/13 07:19:58;;;;;;;24.17;4.93;;;;;;;12.11;100.00;99866.78;5045768;28;20044;-91
2022/11/13 07:22:42;;;;;;;30.67;5.55;;;;;;;12.11;100.00;99872.94;5041102;28;20474;-91
2022/11/13 07:25:27;;;;;;;26.52;5.07;;;;;;;12.14;100.00;99882.34;5038144;28;20174;-91
2022/11/13 07:28:12;;;;;;;31.08;5.35;;;;;;;12.11;100.00;99883.53;5031597;28;20090;-90
2022/11/13 07:30:57;;;;;;;20.45;4.30;;;;;;;12.15;100.00;99876.88;5040115;28;20113;-91
2022/11/13 07:33:42;;;;;;;;;;;;;;;12.08;100.00;99875.91;5052335;28;20029;-91
2022/11/13 07:36:26;;;;;;;30.65;5.47;;;;;;;12.17;100.00;99882.00;5029486;28;19913;-91
2022/11/13 07:39:10;;;;;;;31.20;5.65;;;;;;;12.21;100.00;99880.69;5029792;28;20035;-92
2022/11/13 07:41:55;;;;;;;28.30;5.50;;;;;;;12.25;100.00;99881.16;5051518;28;20036;-90
2022/11/13 07:44:40;;;;;;;24.27;5.72;;;;;;;12.27;100.00;99872.06;5045210;28;20048;-92
2022/11/13 07:47:24;;;;;;;29.20;5.82;;;;;;;12.30;100.00;99872.72;5039164;28;20493;-91
2022/11/13 07:50:08;;;;;;;23.52;5.15;;;;;;;12.31;100.00;99866.44;5051993;28;20032;-91
2022/11/13 07:53:06;;;;;;;25.40;5.00;;;;;;;12.37;100.00;99863.94;5030156;28;20057;-91
2022/11/13 07:55:50;;;;;;;23.33;5.18;;;;;;;12.38;100.00;99852.31;5049448;28;20037;-92
2022/11/13 07:58:35;;;;;;;29.92;5.10;;;;;;;12.41;100.00;99869.69;5036490;28;20094;-91
2022/11/13 08:01:19;;;;;;;22.90;4.43;;;;;;;12.48;100.00;99854.78;5053466;28;20512;-91
2022/11/13 08:04:03;;;;;;;24.33;4.70;;;;;;;12.51;100.00;99854.44;5044472;28;20481;-91
2022/11/13 08:06:47;;;;;;;27.65;5.30;;;;;;;12.53;100.00;99864.88;5036033;28;20102;-92
2022/11/13 08:09:31;;;;;;;32.38;5.63;;;;;;;12.56;100.00;99872.47;5033262;28;20126;-91
2022/11/13 08:12:16;;;;;;;25.88;5.95;;;;;;;12.57;100.00;99862.69;5051272;28;20314;-92
2022/11/13 08:15:00;;;;;;;27.73;5.65;;;;;;;12.60;100.00;99868.47;5048062;28;20564;-91
2022/11/13 08:17:53;;;;;;;21.55;4.95;;;;;;;12.63;100.00;99862.00;5047789;28;20033;-92
2022/11/13 08:20:37;;;;;;;27.15;5.55;;;;;;;12.62;100.00;99863.00;5038753;28;20036;-91
2022/11/13 08:23:21;;;;;;;24.17;4.63;;;;;;;12.65;100.00;99868.78;5028729;28;20036;-91
2022/11/13 08:26:06;;;;;;;27.30;4.90;;;;;;;12.67;100.00;99854.53;5029930;28;20131;-91
2022/11/13 08:28:50;;;;;;;24.02;4.88;;;;;;;12.65;100.00;99858.19;5047165;28;20541;-92
2022/11/13 08:31:35;;;;;;;23.95;5.85;;;;;;;12.71;100.00;99858.50;5048058;28;20032;-92
2022/11/13 08:34:20;;;;;;;24.55;5.80;;;;;;;12.70;100.00;99862.97;5031275;28;20036;-92
2022/11/13 08:37:04;;;;;;;27.00;5.65;;;;;;;12.71;100.00;99861.97;5033844;28;20041;-91
2022/11/13 08:39:48;;;;;;;25.40;5.55;;;;;;;12.75;100.00;99868.59;5052540;28;20512;-91
2022/11/13 08:42:33;;;;;;;26.40;5.05;;;;;;;12.76;100.00;99861.44;5037066;28;20474;-92
2022/11/13 08:45:17;;;;;;;16.98;4.78;;;;;;;12.74;100.00;99880.19;5045898;28;20038;-92
2022/11/13 08:48:02;;;;;;;21.83;5.25;;;;;;;12.77;100.00;99882.47;5037409;28;20033;-92
2022/11/13 08:50:51;;;;;;;19.98;5.38;;;;;;;12.85;100.00;99886.13;5043776;28;20024;-91
2022/11/13 08:53:35;;;;;;;25.35;6.70;;;;;;;12.85;100.00;99880.81;5035201;28;20033;-92
2022/11/13 08:56:20;;;;;;;22.23;5.05;;;;;;;12.85;100.00;99886.13;5052817;28;20043;-92
2022/11/13 08:59:04;;;;;;;33.15;5.93;;;;;;;12.90;100.00;99884.59;5048823;28;20083;-91
2022/11/13 09:01:49;;;;;;;20.45;5.45;;;;;;;12.95;100.00;99884.06;5051390;28;20092;-91
2022/11/13 09:04:33;;;;;;;28.05;6.07;;;;;;;13.00;100.00;99886.19;5046899;28;20032;-92
2022/11/13 09:07:17;;;;;;;24.00;5.82;;;;;;;13.03;100.00;99870.75;5048914;28;20037;-91
2022/11/13 09:10:02;;;;;;;30.42;6.30;;;;;;;13.05;100.00;99885.66;5025091;28;20030;-92
2022/11/13 09:12:47;;;;;;;30.83;6.20;;;;;;;13.13;100.00;99888.28;5048464;28;20075;-92
2022/11/13 09:15:32;;;;;;;33.45;5.82;;;;;;;13.16;100.00;99874.66;5052820;28;20032;-92
2022/11/13 09:18:16;;;;;;;25.95;5.22;;;;;;;13.15;100.00;99868.50;5034240;28;20033;-92
2022/11/13 09:21:04;;;;;;;19.77;5.28;;;;;;;13.19;100.00;99860.19;5020138;28;20037;-92
2022/11/13 09:23:49;;;;;;;24.00;6.00;;;;;;;13.20;100.00;99861.88;5046365;28;20392;-92
2022/11/13 09:26:34;;;;;;;24.50;5.75;;;;;;;13.19;100.00;99863.69;5038648;28;20041;-92
2022/11/13 09:29:19;;;;;;;25.20;6.05;;;;;;;13.20;100.00;99857.41;5035318;28;20033;-92
2022/11/13 09:32:04;;;;;;;24.55;5.47;;;;;;;13.23;100.00;99859.69;5037111;28;20047;-91
2022/11/13 09:34:49;;;;;;;19.08;5.50;;;;;;;13.31;100.00;99853.50;5036551;28;20061;-92
2022/11/13 09:37:33;;;;;;;19.75;5.35;;;;;;;13.33;100.00;99838.22;5023489;28;20030;-91
2022/11/13 09:40:28;;;;;;;26.02;5.72;;;;;;;13.45;100.00;99835.97;5047479;28;20112;-92
2022/11/13 09:43:39;;;;;;;24.60;5.45;;;;;;;13.49;100.00;99834.59;5048760;28;20028;-91
2022/11/13 09:46:48;;;;;;;17.90;5.20;;;;;;;13.56;100.00;99828.59;5050702;28;20029;-92
2022/11/13 09:49:58;;;;;;;28.80;5.50;;;;;;;13.58;100.00;99824.78;5037685;28;20029;-91
2022/11/13 09:52:44;;;;;;;26.88;6.60;;;;;;;13.57;100.00;99827.63;5056317;28;20436;-92
2022/11/13 09:55:37;;;;;;;24.60;5.15;;;;;;;13.63;100.00;99825.06;5051664;28;20120;-92
2022/11/13 09:58:30;;;;;;;29.58;5.45;;;;;;;13.67;100.00;99838.81;5044560;28;20037;-92
2022/11/13 10:01:27;;;;;;;23.52;4.78;;;;;;;13.71;100.00;99821.50;5047449;28;20077;-91
2022/11/13 10:04:14;;;;;;;22.38;5.45;;;;;;;13.70;100.00;99825.16;5038401;28;20017;-92
2022/11/13 10:07:13;;;;;;;28.40;5.68;;;;;;;13.69;100.00;99831.50;5040548;28;20029;-91
2022/11/13 10:10:03;;;;;;;26.48;6.28;;;;;;;13.74;100.00;99823.78;5059049;28;20033;-91
2022/11/13 10:12:50;;;;;;;34.65;5.78;;;;;;;13.80;100.00;99819.59;5048966;28;20044;-92
2022/11/13 10:15:35;;;;;;;21.85;5.03;;;;;;;13.79;100.00;99833.91;5024373;28;20040;-92
2022/11/13 10:18:29;;;;;;;23.80;5.47;;;;;;;13.83;100.00;99824.56;5029905;28;20040;-91
2022/11/13 10:21:42;;;;;;;28.85;6.45;;;;;;;13.88;100.00;99835.47;5058428;28;20052;-91
2022/11/13 10:24:34;;;;;;;28.75;5.90;;;;;;;13.92;100.00;99830.59;5048039;28;20108;-92
2022/11/13 10:27:19;;;;;;;25.90;5.78;;;;;;;13.95;100.00;99840.84;5037261;28;20363;-91
2022/11/13 10:30:14;;;;;;;24.10;5.13;;;;;;;13.97;100.00;99830.88;5047772;28;20068;-91
2022/11/13 10:33:07;;;;;;;21.13;5.10;;;;;;;14.02;100.00;99836.47;5032040;28;20029;-92
2022/11/13 10:36:22;;;;;;;29.77;5.47;;;;;;;14.13;100.00;99829.06;5044871;28;20033;-92
2022/11/13 10:39:08;;;;;;;12.40;4.57;;;;;;;14.14;100.00;99836.84;5046658;28;20116;-92
2022/11/13 10:41:54;;;;;;;18.63;5.43;;;;;;;14.19;100.00;99832.81;5038001;28;20367;-91
2022/11/13 10:44:39;;;;;;;24.95;6.32;;;;;;;14.23;100.00;99826.13;5045469;28;20030;-91
2022/11/13 10:47:30;;;;;;;;;;;;;;;14.20;100.00;99810.53;5065532;28;20044;-87
2022/11/13 10:50:27;;;;;;;27.00;5.03;;;;;;;14.32;100.00;99809.06;5045284;28;19920;-89
2022/11/13 10:53:16;;;;;;;23.77;5.15;;;;;;;14.37;100.00;99816.50;5049452;28;20052;-90
2022/11/13 10:56:10;;;;;;;16.38;4.55;;;;;;;14.40;100.00;99813.47;5044429;28;20136;-89
2022/11/13 10:59:14;;;;;;;23.23;5.60;;;;;;;14.45;100.00;99808.41;5048897;28;20026;-90
2022/11/13 11:02:10;;;;;;;20.58;4.22;;;;;;;14.44;100.00;99808.59;5036807;28;20053;-90
2022/11/13 11:05:18;;;;;;;26.55;6.47;;;;;;;14.48;100.00;99801.88;5046239;28;20048;-90
2022/11/13 11:08:08;;;;;;;21.75;4.95;;;;;;;14.57;100.00;99800.78;5045874;28;20064;-90
2022/11/13 11:14:36;;;;;;;21.67;5.20;;;;;;;14.58;100.00;99807.75;5041690;28;20088;-89
2022/11/13 11:17:27;;;;;;;30.38;5.68;;;;;;;14.58;100.00;99812.25;5048908;28;20132;-89
2022/11/13 11:20:24;;;;;;;27.30;5.97;;;;;;;14.63;100.00;99796.56;5049921;28;20038;-89
2022/11/13 11:23:30;;;;;;;28.10;5.30;;;;;;;14.60;100.00;99803.09;5047726;28;20029;-90
2022/11/13 11:26:23;;;;;;;19.00;5.03;;;;;;;14.63;100.00;99800.06;5046037;28;20041;-89
2022/11/13 11:29:13;;;;;;;27.08;5.03;;;;;;;14.67;100.00;99795.16;5029746;28;20037;-89
2022/11/13 11:32:27;;;;;;;22.83;4.90;;;;;;;14.66;100.00;99790.03;5029078;28;20046;-88
2022/11/13 11:35:26;;;;;;;19.05;4.05;;;;;;;14.66;100.00;99777.56;4955407;28;20033;-89
2022/11/13 11:38:25;;;;;;;27.95;5.28;;;;;;;14.68;100.00;99786.19;5038392;28;20037;-91
2022/11/13 11:41:13;;;;;;;23.60;4.80;;;;;;;14.62;100.00;99786.94;5032670;28;20169;-89
2022/11/13 11:44:16;;;;;;;17.55;4.35;;;;;;;14.59;100.00;99780.13;5046247;28;20040;-89
2022/11/13 11:47:01;;;;;;;29.60;5.70;;;;;;;14.52;100.00;99781.91;5044411;28;20117;-90
2022/11/13 11:49:47;;;;;;;21.50;4.67;;;;;;;14.46;100.00;99767.50;5046590;28;20037;-92
2022/11/13 11:53:01;;;;;;;28.63;5.90;;;;;;;14.45;100.00;99767.69;5047856;28;20466;-89
2022/11/13 11:55:53;;;;;;;22.02;5.63;;;;;;;14.43;100.00;99759.09;5041627;28;20111;-89
2022/11/13 11:59:04;;;;;;;19.63;4.30;;;;;;;14.49;100.00;99758.34;5041986;28;20041;-90
2022/11/13 12:02:13;;;;;;;23.80;4.90;;;;;;;14.52;100.00;99750.00;5031144;28;20040;-88
2022/11/13 12:05:28;;;;;;;20.35;4.75;;;;;;;14.54;100.00;99747.97;5052468;28;20063;-89
2022/11/13 12:08:40;;;;;;;26.52;5.90;;;;;;;14.55;100.00;99743.47;5043766;28;20500;-89
2022/11/13 12:11:30;;;;;;;29.05;6.00;;;;;;;14.54;100.00;99739.97;5032124;28;20037;-88
2022/11/13 12:14:45;;;;;;;24.73;5.55;;;;;;;14.62;100.00;99742.53;5042200;28;20029;-87
2022/11/13 12:17:43;;;;;;;20.10;4.10;;;;;;;14.66;100.00;99727.03;5034617;28;20041;-88
2022/11/13 12:20:42;;;;;;;23.17;5.82;;;;;;;14.73;100.00;99738.53;5040805;28;20550;-88
2022/11/13 12:23:35;;;;;;;22.23;5.00;;;;;;;14.70;100.00;99735.47;5043452;28;20615;-85
2022/11/13 12:26:29;;;;;;;23.13;6.50;;;;;;;14.71;100.00;99726.47;5041811;28;20485;-85
2022/11/13 12:29:48;;;;;;;25.40;5.53;;;;;;;14.66;100.00;99735.00;5041659;28;20366;-86
2022/11/13 12:32:51;;;;;;;29.48;5.15;;;;;;;14.67;100.00;99730.53;5042183;28;20092;-85
2022/11/13 12:35:37;;;;;;;25.95;5.70;;;;;;;14.63;100.00;99735.38;5050403;28;20029;-85
2022/11/13 12:38:21;;;;;;;;;;;;;;;14.52;100.00;99726.06;5045880;28;20029;-84
2022/11/13 12:41:08;;;;;;;24.02;5.68;;;;;;;14.59;100.00;99737.59;5027235;28;20011;-85
2022/11/13 12:44:39;;;;;;;20.23;5.43;;;;;;;14.60;100.00;99741.91;5050580;28;20044;-86
2022/11/13 12:47:24;;;;;;;22.48;5.32;;;;;;;14.59;100.00;99734.09;5022504;28;20131;-86
2022/11/13 12:50:23;;;;;;;30.42;5.82;;;;;;;14.60;100.00;99739.25;5047109;28;20036;-86
2022/11/13 12:53:22;;;;;;;23.67;5.05;;;;;;;14.63;100.00;99741.53;5045645;28;20032;-85